sensor_id;sensor_type;location;lat;lon;timestamp;pressure;altitude;pressure_sealevel;temperature;humidity
9905;BME280;4991;43.566;27.820;2023-04-06T00:01:39;98453.56;;;4.24;100.00
9905;BME280;4991;43.566;27.820;2023-04-06T00:04:05;98455.44;;;4.24;100.00
9905;BME280;4991;43.566;27.820;2023-04-06T00:06:31;98451.66;;;4.20;100.00
9905;BME280;4991;43.566;27.820;2023-04-06T00:08:57;98456.53;;;4.18;100.00
9905;BME280;4991;43.566;27.820;2023-04-06T00:11:23;98444.94;;;4.07;100.00
9905;BME280;4991;43.566;27.820;2023-04-06T00:13:48;98444.41;;;4.05;100.00
9905;BME280;4991;43.566;27.820;2023-04-06T00:16:14;98443.84;;;3.98;100.00
9905;BME280;4991;43.566;27.820;2023-04-06T00:18:40;98443.63;;;3.94;100.00
9905;BME280;4991;43.566;27.820;2023-04-06T00:21:06;98439.28;;;3.93;100.00
9905;BME280;4991;43.566;27.820;2023-04-06T00:23:32;98443.84;;;3.98;100.00
9905;BME280;4991;43.566;27.820;2023-04-06T00:25:57;98433.91;;;3.83;100.00
9905;BME280;4991;43.566;27.820;2023-04-06T00:28:23;98437.13;;;3.85;100.00
9905;BME280;4991;43.566;27.820;2023-04-06T00:30:52;98426.63;;;3.79;100.00
9905;BME280;4991;43.566;27.820;2023-04-06T00:33:19;98428.50;;;3.78;100.00
9905;BME280;4991;43.566;27.820;2023-04-06T00:35:45;98424.22;;;3.82;100.00
9905;BME280;4991;43.566;27.820;2023-04-06T00:38:11;98421.53;;;3.82;100.00
9905;BME280;4991;43.566;27.820;2023-04-06T00:40:38;98413.72;;;3.76;100.00
9905;BME280;4991;43.566;27.820;2023-04-06T00:43:05;98413.97;;;3.74;100.00
9905;BME280;4991;43.566;27.820;2023-04-06T00:45:32;98408.59;;;3.74;100.00
9905;BME280;4991;43.566;27.820;2023-04-06T00:47:58;98415.56;;;3.60;100.00
9905;BME280;4991;43.566;27.820;2023-04-06T00:50:23;98407.50;;;3.55;100.00
9905;BME280;4991;43.566;27.820;2023-04-06T00:52:50;98411.53;;;3.48;100.00
9905;BME280;4991;43.566;27.820;2023-04-06T00:55:17;98414.75;;;3.50;100.00
9905;BME280;4991;43.566;27.820;2023-04-06T00:57:42;98412.59;;;3.52;100.00
9905;BME280;4991;43.566;27.820;2023-04-06T01:00:08;98413.16;;;3.49;100.00
9905;BME280;4991;43.566;27.820;2023-04-06T01:02:35;98408.03;;;3.52;100.00
9905;BME280;4991;43.566;27.820;2023-04-06T01:05:01;98391.34;;;3.50;100.00
9905;BME280;4991;43.566;27.820;2023-04-06T01:07:27;98401.56;;;3.48;100.00
9905;BME280;4991;43.566;27.820;2023-04-06T01:09:53;98391.88;;;3.42;100.00
9905;BME280;4991;43.566;27.820;2023-04-06T01:12:20;98387.59;;;3.46;100.00
9905;BME280;4991;43.566;27.820;2023-04-06T01:14:45;98404.25;;;3.48;100.00
9905;BME280;4991;43.566;27.820;2023-04-06T01:17:11;98388.09;;;3.53;100.00
9905;BME280;4991;43.566;27.820;2023-04-06T01:19:37;98394.03;;;3.50;100.00
9905;BME280;4991;43.566;27.820;2023-04-06T01:22:03;98382.19;;;3.46;100.00
9905;BME280;4991;43.566;27.820;2023-04-06T01:24:29;98381.38;;;3.41;100.00
9905;BME280;4991;43.566;27.820;2023-04-06T01:26:54;98381.94;;;3.43;100.00
9905;BME280;4991;43.566;27.820;2023-04-06T01:29:22;98384.88;;;3.31;100.00
9905;BME280;4991;43.566;27.820;2023-04-06T01:31:47;98373.00;;;3.27;100.00
9905;BME280;4991;43.566;27.820;2023-04-06T01:34:13;98375.72;;;3.27;100.00
9905;BME280;4991;43.566;27.820;2023-04-06T01:36:39;98381.34;;;3.21;100.00
9905;BME280;4991;43.566;27.820;2023-04-06T01:39:04;98380.53;;;3.30;100.00
9905;BME280;4991;43.566;27.820;2023-04-06T01:41:30;98380.00;;;3.38;100.00
9905;BME280;4991;43.566;27.820;2023-04-06T01:43:56;98379.78;;;3.35;100.00
9905;BME280;4991;43.566;27.820;2023-04-06T01:46:21;98389.69;;;3.19;100.00
9905;BME280;4991;43.566;27.820;2023-04-06T01:48:47;98374.09;;;3.16;100.00
9905;BME280;4991;43.566;27.820;2023-04-06T01:51:13;98381.88;;;3.18;100.00
9905;BME280;4991;43.566;27.820;2023-04-06T01:53:38;98378.38;;;3.17;100.00
9905;BME280;4991;43.566;27.820;2023-04-06T01:56:04;98386.16;;;3.14;100.00
9905;BME280;4991;43.566;27.820;2023-04-06T01:58:30;98375.94;;;3.11;100.00
9905;BME280;4991;43.566;27.820;2023-04-06T02:00:56;98386.72;;;3.16;100.00
9905;BME280;4991;43.566;27.820;2023-04-06T02:03:21;98383.72;;;3.02;100.00
9905;BME280;4991;43.566;27.820;2023-04-06T02:05:47;98383.47;;;3.09;100.00
9905;BME280;4991;43.566;27.820;2023-04-06T02:08:13;98379.16;;;3.08;100.00
9905;BME280;4991;43.566;27.820;2023-04-06T02:10:38;98378.09;;;3.09;100.00
9905;BME280;4991;43.566;27.820;2023-04-06T02:13:04;98383.16;;;3.00;100.00
9905;BME280;4991;43.566;27.820;2023-04-06T02:15:29;98384.25;;;2.99;100.00
9905;BME280;4991;43.566;27.820;2023-04-06T02:17:55;98371.34;;;2.96;100.00
9905;BME280;4991;43.566;27.820;2023-04-06T02:20:21;98376.72;;;2.96;100.00
9905;BME280;4991;43.566;27.820;2023-04-06T02:22:46;98378.28;;;2.87;100.00
9905;BME280;4991;43.566;27.820;2023-04-06T02:25:12;98369.97;;;2.94;100.00
9905;BME280;4991;43.566;27.820;2023-04-06T02:27:38;98372.91;;;2.82;100.00
9905;BME280;4991;43.566;27.820;2023-04-06T02:30:04;98374.50;;;2.73;100.00
9905;BME280;4991;43.566;27.820;2023-04-06T02:32:30;98369.94;;;2.79;100.00
9905;BME280;4991;43.566;27.820;2023-04-06T02:34:55;98376.41;;;2.83;100.00
9905;BME280;4991;43.566;27.820;2023-04-06T02:37:21;98367.78;;;2.76;100.00
9905;BME280;4991;43.566;27.820;2023-04-06T02:39:48;98361.59;;;2.70;100.00
9905;BME280;4991;43.566;27.820;2023-04-06T02:42:14;98368.00;;;2.64;100.00
9905;BME280;4991;43.566;27.820;2023-04-06T02:44:41;98364.78;;;2.57;100.00
9905;BME280;4991;43.566;27.820;2023-04-06T02:47:07;98370.13;;;2.52;100.00
9905;BME280;4991;43.566;27.820;2023-04-06T02:49:33;98371.72;;;2.48;100.00
9905;BME280;4991;43.566;27.820;2023-04-06T02:51:58;98375.22;;;2.53;100.00
9905;BME280;4991;43.566;27.820;2023-04-06T02:54:24;98372.00;;;2.51;100.00
9905;BME280;4991;43.566;27.820;2023-04-06T02:56:50;98373.56;;;2.47;100.00
9905;BME280;4991;43.566;27.820;2023-04-06T02:59:15;98384.09;;;2.54;100.00
9905;BME280;4991;43.566;27.820;2023-04-06T03:01:41;98384.31;;;2.47;100.00
9905;BME280;4991;43.566;27.820;2023-04-06T03:04:07;98372.81;;;2.52;100.00
9905;BME280;4991;43.566;27.820;2023-04-06T03:06:32;98373.88;;;2.51;100.00
9905;BME280;4991;43.566;27.820;2023-04-06T03:08:58;98373.06;;;2.55;100.00
9905;BME280;4991;43.566;27.820;2023-04-06T03:11:23;98370.41;;;2.60;100.00
9905;BME280;4991;43.566;27.820;2023-04-06T03:13:49;98367.47;;;2.57;100.00
9905;BME280;4991;43.566;27.820;2023-04-06T03:16:15;98371.19;;;2.51;100.00
9905;BME280;4991;43.566;27.820;2023-04-06T03:18:40;98360.19;;;2.57;100.00
9905;BME280;4991;43.566;27.820;2023-04-06T03:21:06;98362.06;;;2.62;100.00
9905;BME280;4991;43.566;27.820;2023-04-06T03:23:31;98377.38;;;2.56;100.00
9905;BME280;4991;43.566;27.820;2023-04-06T03:25:57;98363.94;;;2.56;100.00
9905;BME280;4991;43.566;27.820;2023-04-06T03:28:23;98377.63;;;2.50;100.00
9905;BME280;4991;43.566;27.820;2023-04-06T03:30:49;98372.00;;;2.51;100.00
9905;BME280;4991;43.566;27.820;2023-04-06T03:33:14;98382.16;;;2.44;100.00
9905;BME280;4991;43.566;27.820;2023-04-06T03:35:40;98384.31;;;2.47;100.00
9905;BME280;4991;43.566;27.820;2023-04-06T03:38:06;98373.88;;;2.51;100.00
9905;BME280;4991;43.566;27.820;2023-04-06T03:40:31;98381.38;;;2.49;100.00
9905;BME280;4991;43.566;27.820;2023-04-06T03:42:57;98366.84;;;2.45;100.00
9905;BME280;4991;43.566;27.820;2023-04-06T03:45:23;98382.63;;;2.31;100.00
9905;BME280;4991;43.566;27.820;2023-04-06T03:47:48;98374.63;;;2.41;100.00
9905;BME280;4991;43.566;27.820;2023-04-06T03:50:14;98378.38;;;2.40;100.00
9905;BME280;4991;43.566;27.820;2023-04-06T03:52:40;98374.06;;;2.34;100.00
9905;BME280;4991;43.566;27.820;2023-04-06T03:55:07;98378.56;;;2.29;100.00
9905;BME280;4991;43.566;27.820;2023-04-06T03:57:33;98373.22;;;2.34;100.00
9905;BME280;4991;43.566;27.820;2023-04-06T03:59:58;98382.41;;;2.38;100.00
9905;BME280;4991;43.566;27.820;2023-04-06T04:02:24;98375.66;;;2.30;100.00
9905;BME280;4991;43.566;27.820;2023-04-06T04:04:50;98384.22;;;2.27;100.00
9905;BME280;4991;43.566;27.820;2023-04-06T04:07:16;98378.34;;;2.30;100.00
9905;BME280;4991;43.566;27.820;2023-04-06T04:09:41;98374.84;;;2.30;100.00
9905;BME280;4991;43.566;27.820;2023-04-06T04:12:07;98388.56;;;2.33;100.00
9905;BME280;4991;43.566;27.820;2023-04-06T04:14:32;98386.69;;;2.39;100.00
9905;BME280;4991;43.566;27.820;2023-04-06T04:16:58;98381.34;;;2.44;100.00
9905;BME280;4991;43.566;27.820;2023-04-06T04:19:25;98378.91;;;2.37;100.00
9905;BME280;4991;43.566;27.820;2023-04-06T04:21:51;98382.44;;;2.43;100.00
9905;BME280;4991;43.566;27.820;2023-04-06T04:24:16;98388.31;;;2.35;100.00
9905;BME280;4991;43.566;27.820;2023-04-06T04:26:42;98384.00;;;2.39;100.00
9905;BME280;4991;43.566;27.820;2023-04-06T04:29:07;98385.66;;;2.40;100.00
9905;BME280;4991;43.566;27.820;2023-04-06T04:31:33;98381.59;;;2.37;100.00
9905;BME280;4991;43.566;27.820;2023-04-06T04:33:59;98377.63;;;2.50;100.00
9905;BME280;4991;43.566;27.820;2023-04-06T04:36:25;98380.41;;;2.70;100.00
9905;BME280;4991;43.566;27.820;2023-04-06T04:38:52;98371.28;;;2.76;100.00
9905;BME280;4991;43.566;27.820;2023-04-06T04:41:18;98373.97;;;2.76;100.00
9905;BME280;4991;43.566;27.820;2023-04-06T04:43:43;98368.59;;;2.76;100.00
9905;BME280;4991;43.566;27.820;2023-04-06T04:46:10;98366.72;;;2.77;100.00
9905;BME280;4991;43.566;27.820;2023-04-06T04:48:35;98375.56;;;2.77;100.00
9905;BME280;4991;43.566;27.820;2023-04-06T04:51:01;98376.38;;;2.73;100.00
9905;BME280;4991;43.566;27.820;2023-04-06T04:53:27;98371.78;;;2.68;100.00
9905;BME280;4991;43.566;27.820;2023-04-06T04:55:53;98373.66;;;2.67;100.00
9905;BME280;4991;43.566;27.820;2023-04-06T04:58:18;98379.06;;;2.78;100.00
9905;BME280;4991;43.566;27.820;2023-04-06T05:00:45;98378.28;;;2.82;100.00
9905;BME280;4991;43.566;27.820;2023-04-06T05:03:19;98384.75;;;2.86;100.00
9905;BME280;4991;43.566;27.820;2023-04-06T05:05:45;98375.31;;;2.79;100.00
9905;BME280;4991;43.566;27.820;2023-04-06T05:08:11;98377.53;;;2.92;100.00
9905;BME280;4991;43.566;27.820;2023-04-06T05:10:37;98356.78;;;2.87;100.00
9905;BME280;4991;43.566;27.820;2023-04-06T05:13:03;98376.19;;;2.99;100.00
9905;BME280;4991;43.566;27.820;2023-04-06T05:15:28;98381.03;;;3.02;100.00
9905;BME280;4991;43.566;27.820;2023-04-06T05:17:54;98366.53;;;3.08;100.00
9905;BME280;4991;43.566;27.820;2023-04-06T05:20:20;98375.09;;;3.00;100.00
9905;BME280;4991;43.566;27.820;2023-04-06T05:22:45;98376.47;;;3.08;100.00
9905;BME280;4991;43.566;27.820;2023-04-06T05:25:11;98370.00;;;3.09;100.00
9905;BME280;4991;43.566;27.820;2023-04-06T05:27:36;98374.03;;;3.01;100.00
9905;BME280;4991;43.566;27.820;2023-04-06T05:30:02;98371.63;;;2.95;100.00
9905;BME280;4991;43.566;27.820;2023-04-06T05:32:28;98360.84;;;2.95;100.00
9905;BME280;4991;43.566;27.820;2023-04-06T05:34:54;98373.47;;;2.94;100.00
9905;BME280;4991;43.566;27.820;2023-04-06T05:37:19;98360.28;;;2.88;100.00
9905;BME280;4991;43.566;27.820;2023-04-06T05:39:45;98364.06;;;2.82;100.00
9905;BME280;4991;43.566;27.820;2023-04-06T05:42:11;98365.94;;;2.86;100.00
9905;BME280;4991;43.566;27.820;2023-04-06T05:44:37;98373.22;;;2.96;100.00
9905;BME280;4991;43.566;27.820;2023-04-06T05:47:03;98358.75;;;3.07;100.00
9905;BME280;4991;43.566;27.820;2023-04-06T05:49:28;98360.59;;;3.01;100.00
9905;BME280;4991;43.566;27.820;2023-04-06T05:51:55;98357.09;;;3.01;100.00
9905;BME280;4991;43.566;27.820;2023-04-06T05:54:21;98348.22;;;3.00;100.00
9905;BME280;4991;43.566;27.820;2023-04-06T05:56:46;98354.44;;;3.11;100.00
9905;BME280;4991;43.566;27.820;2023-04-06T05:59:12;98352.31;;;3.28;100.00
9905;BME280;4991;43.566;27.820;2023-04-06T06:01:38;98346.66;;;3.24;100.00
9905;BME280;4991;43.566;27.820;2023-04-06T06:04:03;98343.44;;;3.32;100.00
9905;BME280;4991;43.566;27.820;2023-04-06T06:06:29;98346.38;;;3.31;100.00
9905;BME280;4991;43.566;27.820;2023-04-06T06:08:58;98352.59;;;3.46;100.00
9905;BME280;4991;43.566;27.820;2023-04-06T06:11:28;98356.63;;;3.39;100.00
9905;BME280;4991;43.566;27.820;2023-04-06T06:13:53;98355.53;;;3.55;100.00
9905;BME280;4991;43.566;27.820;2023-04-06T06:16:19;98342.88;;;3.60;100.00
9905;BME280;4991;43.566;27.820;2023-04-06T06:18:45;98352.31;;;3.78;100.00
9905;BME280;4991;43.566;27.820;2023-04-06T06:21:10;98341.00;;;3.86;100.00
9905;BME280;4991;43.566;27.820;2023-04-06T06:23:42;98339.88;;;4.02;100.00
9905;BME280;4991;43.566;27.820;2023-04-06T06:26:08;98357.34;;;4.20;100.00
9905;BME280;4991;43.566;27.820;2023-04-06T06:28:33;98351.16;;;4.19;100.00
9905;BME280;4991;43.566;27.820;2023-04-06T06:30:59;98349.25;;;4.25;100.00
9905;BME280;4991;43.566;27.820;2023-04-06T06:33:24;98352.78;;;4.20;100.00
9905;BME280;4991;43.566;27.820;2023-04-06T06:35:51;98344.09;;;4.33;100.00
9905;BME280;4991;43.566;27.820;2023-04-06T06:38:17;98332.75;;;4.41;100.00
9905;BME280;4991;43.566;27.820;2023-04-06T06:40:43;98344.56;;;4.60;100.00
9905;BME280;4991;43.566;27.820;2023-04-06T06:43:09;98344.25;;;4.67;100.00
9905;BME280;4991;43.566;27.820;2023-04-06T06:45:34;98338.88;;;4.62;100.00
9905;BME280;4991;43.566;27.820;2023-04-06T06:48:00;98341.59;;;4.57;100.00
9905;BME280;4991;43.566;27.820;2023-04-06T06:50:27;98348.28;;;4.69;100.00
9905;BME280;4991;43.566;27.820;2023-04-06T06:52:52;98346.09;;;4.76;100.00
9905;BME280;4991;43.566;27.820;2023-04-06T06:55:18;98344.72;;;4.84;100.00
9905;BME280;4991;43.566;27.820;2023-04-06T06:57:46;98339.22;;;5.04;100.00
9905;BME280;4991;43.566;27.820;2023-04-06T07:00:13;98351.28;;;5.16;100.00
9905;BME280;4991;43.566;27.820;2023-04-06T07:02:40;98346.47;;;5.08;100.00
9905;BME280;4991;43.566;27.820;2023-04-06T07:05:06;98338.09;;;5.49;100.00
9905;BME280;4991;43.566;27.820;2023-04-06T07:07:32;98340.88;;;5.39;100.00
9905;BME280;4991;43.566;27.820;2023-04-06T07:09:59;98355.91;;;5.50;100.00
9905;BME280;4991;43.566;27.820;2023-04-06T07:12:24;98350.00;;;5.43;100.00
9905;BME280;4991;43.566;27.820;2023-04-06T07:14:50;98355.34;;;5.53;100.00
9905;BME280;4991;43.566;27.820;2023-04-06T07:17:16;98350.22;;;5.51;100.00
9905;BME280;4991;43.566;27.820;2023-04-06T07:19:41;98362.53;;;5.28;100.00
9905;BME280;4991;43.566;27.820;2023-04-06T07:22:08;98349.31;;;5.27;100.00
9905;BME280;4991;43.566;27.820;2023-04-06T07:24:33;98355.78;;;5.26;100.00
9905;BME280;4991;43.566;27.820;2023-04-06T07:26:59;98355.00;;;5.25;100.00
9905;BME280;4991;43.566;27.820;2023-04-06T07:29:26;98352.28;;;5.31;100.00
9905;BME280;4991;43.566;27.820;2023-04-06T07:31:53;98348.91;;;5.49;100.00
9905;BME280;4991;43.566;27.820;2023-04-06T07:34:18;98349.59;;;5.59;100.00
9905;BME280;4991;43.566;27.820;2023-04-06T07:36:44;98346.78;;;5.74;100.00
9905;BME280;4991;43.566;27.820;2023-04-06T07:39:10;98343.78;;;5.76;100.00
9905;BME280;4991;43.566;27.820;2023-04-06T07:41:36;98351.06;;;5.80;100.00
9905;BME280;4991;43.566;27.820;2023-04-06T07:44:02;98349.97;;;5.86;100.00
9905;BME280;4991;43.566;27.820;2023-04-06T07:46:27;98353.38;;;5.97;100.00
9905;BME280;4991;43.566;27.820;2023-04-06T07:48:53;98350.84;;;6.05;100.00
9905;BME280;4991;43.566;27.820;2023-04-06T07:51:19;98341.19;;;5.99;100.00
9905;BME280;4991;43.566;27.820;2023-04-06T07:53:44;98354.66;;;6.04;100.00
9905;BME280;4991;43.566;27.820;2023-04-06T07:56:10;98345.44;;;6.05;100.00
9905;BME280;4991;43.566;27.820;2023-04-06T07:58:37;98349.84;;;6.25;100.00
9905;BME280;4991;43.566;27.820;2023-04-06T08:01:03;98350.53;;;6.35;100.00
9905;BME280;4991;43.566;27.820;2023-04-06T08:03:29;98356.47;;;6.61;100.00
9905;BME280;4991;43.566;27.820;2023-04-06T08:05:54;98356.59;;;6.51;100.00
9905;BME280;4991;43.566;27.820;2023-04-06T08:08:21;98358.53;;;6.45;100.00
9905;BME280;4991;43.566;27.820;2023-04-06T08:10:49;98355.84;;;6.45;100.00
9905;BME280;4991;43.566;27.820;2023-04-06T08:13:15;98358.88;;;6.39;100.00
9905;BME280;4991;43.566;27.820;2023-04-06T08:15:41;98352.78;;;6.28;100.00
9905;BME280;4991;43.566;27.820;2023-04-06T08:18:08;98355.31;;;6.43;100.00
9905;BME280;4991;43.566;27.820;2023-04-06T08:20:34;98355.19;;;6.53;100.00
9905;BME280;4991;43.566;27.820;2023-04-06T08:23:00;98346.13;;;6.68;100.00
9905;BME280;4991;43.566;27.820;2023-04-06T08:25:25;98355.78;;;6.74;100.00
9905;BME280;4991;43.566;27.820;2023-04-06T08:27:51;98347.13;;;6.48;100.00
9905;BME280;4991;43.566;27.820;2023-04-06T08:30:17;98355.84;;;6.69;100.00
9905;BME280;4991;43.566;27.820;2023-04-06T08:32:45;98347.38;;;6.52;100.00
9905;BME280;4991;43.566;27.820;2023-04-06T08:35:11;98354.97;;;6.74;100.00
9905;BME280;4991;43.566;27.820;2023-04-06T08:37:37;98350.81;;;6.81;100.00
9905;BME280;4991;43.566;27.820;2023-04-06T08:40:04;98350.53;;;6.83;100.00
9905;BME280;4991;43.566;27.820;2023-04-06T08:42:32;98359.09;;;6.90;100.00
9905;BME280;4991;43.566;27.820;2023-04-06T08:44:59;98358.28;;;6.89;100.00
9905;BME280;4991;43.566;27.820;2023-04-06T08:47:25;98355.41;;;6.81;100.00
9905;BME280;4991;43.566;27.820;2023-04-06T08:49:52;98357.72;;;6.69;100.00
9905;BME280;4991;43.566;27.820;2023-04-06T08:52:18;98354.84;;;6.60;100.00
9905;BME280;4991;43.566;27.820;2023-04-06T08:54:44;98361.25;;;6.45;100.00
9905;BME280;4991;43.566;27.820;2023-04-06T08:57:10;98358.72;;;6.54;100.00
9905;BME280;4991;43.566;27.820;2023-04-06T08:59:37;98366.94;;;6.68;100.00
9905;BME280;4991;43.566;27.820;2023-04-06T09:02:04;98356.41;;;6.66;100.00
9905;BME280;4991;43.566;27.820;2023-04-06T09:04:32;98363.34;;;6.96;100.00
9905;BME280;4991;43.566;27.820;2023-04-06T09:07:00;98366.28;;;6.99;100.00
9905;BME280;4991;43.566;27.820;2023-04-06T09:09:26;98367.22;;;6.90;100.00
9905;BME280;4991;43.566;27.820;2023-04-06T09:11:52;98369.41;;;6.88;100.00
9905;BME280;4991;43.566;27.820;2023-04-06T09:14:29;98368.81;;;6.91;100.00
9905;BME280;4991;43.566;27.820;2023-04-06T09:16:58;98358.09;;;7.04;100.00
9905;BME280;4991;43.566;27.820;2023-04-06T09:19:23;98366.50;;;7.21;100.00
9905;BME280;4991;43.566;27.820;2023-04-06T09:21:49;98357.56;;;7.02;100.00
9905;BME280;4991;43.566;27.820;2023-04-06T09:24:15;98355.91;;;7.06;100.00
9905;BME280;4991;43.566;27.820;2023-04-06T09:26:46;98363.38;;;7.33;100.00
9905;BME280;4991;43.566;27.820;2023-04-06T09:29:23;98352.09;;;7.76;100.00
9905;BME280;4991;43.566;27.820;2023-04-06T09:31:49;98348.34;;;7.59;100.00
9905;BME280;4991;43.566;27.820;2023-04-06T09:34:22;98351.75;;;7.64;100.00
9905;BME280;4991;43.566;27.820;2023-04-06T09:36:48;98352.38;;;7.94;100.00
9905;BME280;4991;43.566;27.820;2023-04-06T09:39:14;98345.25;;;7.65;100.00
9905;BME280;4991;43.566;27.820;2023-04-06T09:41:39;98356.41;;;7.64;100.00
9905;BME280;4991;43.566;27.820;2023-04-06T09:44:08;98348.69;;;7.71;100.00
9905;BME280;4991;43.566;27.820;2023-04-06T09:46:41;98347.72;;;7.80;100.00
9905;BME280;4991;43.566;27.820;2023-04-06T09:49:09;98357.47;;;7.63;100.00
9905;BME280;4991;43.566;27.820;2023-04-06T09:54:04;98356.56;;;7.54;100.00
9905;BME280;4991;43.566;27.820;2023-04-06T09:56:45;98353.78;;;7.22;100.00
9905;BME280;4991;43.566;27.820;2023-04-06T09:59:21;98360.75;;;7.28;100.00
9905;BME280;4991;43.566;27.820;2023-04-06T10:01:51;98357.22;;;7.09;100.00
9905;BME280;4991;43.566;27.820;2023-04-06T10:06:55;98360.75;;;7.28;100.00
9905;BME280;4991;43.566;27.820;2023-04-06T10:09:25;98363.34;;;6.96;100.00
9905;BME280;4991;43.566;27.820;2023-04-06T10:11:54;98348.84;;;6.87;100.00
9905;BME280;4991;43.566;27.820;2023-04-06T10:14:20;98359.09;;;6.90;100.00
9905;BME280;4991;43.566;27.820;2023-04-06T10:16:48;98373.13;;;6.92;100.00
9905;BME280;4991;43.566;27.820;2023-04-06T10:19:24;98361.59;;;7.05;100.00
9905;BME280;4991;43.566;27.820;2023-04-06T10:21:54;98365.78;;;7.16;100.00
9905;BME280;4991;43.566;27.820;2023-04-06T10:24:23;98354.59;;;7.41;100.00
9905;BME280;4991;43.566;27.820;2023-04-06T10:27:01;98362.13;;;7.44;100.00
9905;BME280;4991;43.566;27.820;2023-04-06T10:29:27;98349.31;;;7.49;100.00
9905;BME280;4991;43.566;27.820;2023-04-06T10:31:53;98353.69;;;7.45;100.00
9905;BME280;4991;43.566;27.820;2023-04-06T10:34:20;98359.88;;;7.64;100.00
9905;BME280;4991;43.566;27.820;2023-04-06T10:36:46;98350.84;;;7.55;100.00
9905;BME280;4991;43.566;27.820;2023-04-06T10:39:12;98358.78;;;7.84;100.00
9905;BME280;4991;43.566;27.820;2023-04-06T10:41:42;98360.13;;;8.00;100.00
9905;BME280;4991;43.566;27.820;2023-04-06T10:44:20;98356.38;;;7.96;100.00
9905;BME280;4991;43.566;27.820;2023-04-06T10:46:54;98338.22;;;8.29;100.00
9905;BME280;4991;43.566;27.820;2023-04-06T10:49:21;98333.91;;;8.68;100.00
9905;BME280;4991;43.566;27.820;2023-04-06T10:51:54;98339.53;;;8.58;100.00
9905;BME280;4991;43.566;27.820;2023-04-06T10:54:24;98342.84;;;8.42;100.00
9905;BME280;4991;43.566;27.820;2023-04-06T10:56:52;98343.69;;;8.10;100.00
9905;BME280;4991;43.566;27.820;2023-04-06T10:59:21;98351.94;;;8.19;100.00
9905;BME280;4991;43.566;27.820;2023-04-06T11:01:47;98358.00;;;7.97;100.00
9905;BME280;4991;43.566;27.820;2023-04-06T11:04:19;98349.97;;;7.92;100.00
9905;BME280;4991;43.566;27.820;2023-04-06T11:06:47;98357.66;;;7.85;100.00
9905;BME280;4991;43.566;27.820;2023-04-06T11:09:30;98348.88;;;7.74;100.00
9905;BME280;4991;43.566;27.820;2023-04-06T11:11:57;98353.91;;;7.67;100.00
9905;BME280;4991;43.566;27.820;2023-04-06T11:14:23;98354.28;;;7.93;100.00
9905;BME280;4991;43.566;27.820;2023-04-06T11:16:48;98356.22;;;8.06;100.00
9905;BME280;4991;43.566;27.820;2023-04-06T11:19:17;98345.31;;;7.93;100.00
9905;BME280;4991;43.566;27.820;2023-04-06T11:21:46;98357.41;;;8.00;100.00
9905;BME280;4991;43.566;27.820;2023-04-06T11:24:21;98359.78;;;7.88;100.00
9905;BME280;4991;43.566;27.820;2023-04-06T11:26:48;98345.31;;;7.79;100.00
9905;BME280;4991;43.566;27.820;2023-04-06T11:29:21;98330.38;;;7.95;100.00
9905;BME280;4991;43.566;27.820;2023-04-06T11:31:49;98349.69;;;8.07;100.00
9905;BME280;4991;43.566;27.820;2023-04-06T11:34:22;98347.03;;;7.88;100.00
9905;BME280;4991;43.566;27.820;2023-04-06T11:36:53;98337.31;;;7.88;100.00
9905;BME280;4991;43.566;27.820;2023-04-06T11:39:21;98330.13;;;7.78;100.00
9905;BME280;4991;43.566;27.820;2023-04-06T11:41:49;98325.47;;;7.97;100.00
9905;BME280;4991;43.566;27.820;2023-04-06T11:44:26;98326.56;;;8.28;100.00
9905;BME280;4991;43.566;27.820;2023-04-06T11:46:53;98327.56;;;8.32;100.00
9905;BME280;4991;43.566;27.820;2023-04-06T11:49:19;98326.97;;;8.03;100.00
9905;BME280;4991;43.566;27.820;2023-04-06T11:51:46;98325.06;;;7.90;100.00
9905;BME280;4991;43.566;27.820;2023-04-06T11:54:11;98328.09;;;8.02;100.00
9905;BME280;4991;43.566;27.820;2023-04-06T11:56:38;98324.81;;;8.19;100.00
9905;BME280;4991;43.566;27.820;2023-04-06T11:59:04;98333.88;;;8.41;100.00
9905;BME280;4991;43.566;27.820;2023-04-06T12:01:29;98331.38;;;8.31;100.00
9905;BME280;4991;43.566;27.820;2023-04-06T12:03:55;98325.94;;;8.31;100.00
9905;BME280;4991;43.566;27.820;2023-04-06T12:06:22;98327.72;;;8.22;100.00
9905;BME280;4991;43.566;27.820;2023-04-06T12:08:48;98333.41;;;8.26;100.00
9905;BME280;4991;43.566;27.820;2023-04-06T12:11:14;98328.75;;;8.26;100.00
9905;BME280;4991;43.566;27.820;2023-04-06T12:13:39;98318.56;;;8.18;100.00
9905;BME280;4991;43.566;27.820;2023-04-06T12:16:05;98327.06;;;8.44;100.00
9905;BME280;4991;43.566;27.820;2023-04-06T12:18:31;98321.25;;;8.50;100.00
9905;BME280;4991;43.566;27.820;2023-04-06T12:20:57;98322.63;;;8.48;100.00
9905;BME280;4991;43.566;27.820;2023-04-06T12:23:22;98321.34;;;8.45;100.00
9905;BME280;4991;43.566;27.820;2023-04-06T12:25:48;98314.16;;;8.22;100.00
9905;BME280;4991;43.566;27.820;2023-04-06T12:28:13;98317.19;;;8.34;100.00
9905;BME280;4991;43.566;27.820;2023-04-06T12:30:39;98314.28;;;8.58;100.00
9905;BME280;4991;43.566;27.820;2023-04-06T12:33:06;98318.13;;;8.70;100.00
9905;BME280;4991;43.566;27.820;2023-04-06T12:35:36;98315.53;;;9.14;100.00
9905;BME280;4991;43.566;27.820;2023-04-06T12:38:02;98309.44;;;9.31;100.00
9905;BME280;4991;43.566;27.820;2023-04-06T12:40:28;98303.66;;;9.46;100.00
9905;BME280;4991;43.566;27.820;2023-04-06T12:42:54;98308.97;;;9.51;100.00
9905;BME280;4991;43.566;27.820;2023-04-06T12:45:20;98302.28;;;9.35;100.00
9905;BME280;4991;43.566;27.820;2023-04-06T12:47:45;98304.34;;;9.16;100.00
9905;BME280;4991;43.566;27.820;2023-04-06T12:50:11;98310.88;;;8.52;100.00
9905;BME280;4991;43.566;27.820;2023-04-06T12:52:37;98315.59;;;8.33;100.00
9905;BME280;4991;43.566;27.820;2023-04-06T12:55:03;98314.94;;;8.23;100.00
9905;BME280;4991;43.566;27.820;2023-04-06T12:57:30;98311.03;;;8.15;100.00
9905;BME280;4991;43.566;27.820;2023-04-06T12:59:56;98310.47;;;8.32;100.00
9905;BME280;4991;43.566;27.820;2023-04-06T13:02:22;98301.94;;;8.52;100.00
9905;BME280;4991;43.566;27.820;2023-04-06T13:04:48;98295.41;;;8.53;100.00
9905;BME280;4991;43.566;27.820;2023-04-06T13:07:14;98310.16;;;8.74;100.00
9905;BME280;4991;43.566;27.820;2023-04-06T13:09:40;98301.13;;;8.65;100.00
9905;BME280;4991;43.566;27.820;2023-04-06T13:12:06;98298.84;;;9.07;100.00